createdAt,value
2019-03-03T00:00:22.059Z,19.87
2019-03-03T00:02:50.749Z,19.23
2019-03-03T00:05:19.322Z,19.67
2019-03-03T00:07:48.375Z,19.00
2019-03-03T00:10:16.929Z,18.53
2019-03-03T00:12:45.461Z,19.67
2019-03-03T00:15:14.093Z,18.30
2019-03-03T00:17:42.611Z,20.10
2019-03-03T00:20:15.438Z,18.60
2019-03-03T00:22:44.077Z,18.20
2019-03-03T00:25:13.873Z,18.73
2019-03-03T00:27:42.543Z,18.27
2019-03-03T00:30:14.208Z,17.87
2019-03-03T00:32:42.794Z,17.40
2019-03-03T00:35:11.378Z,18.17
2019-03-03T00:37:44.369Z,17.93
2019-03-03T00:40:14.485Z,17.73
2019-03-03T00:42:50.637Z,17.23
2019-03-03T00:45:33.022Z,16.50
2019-03-03T00:48:19.781Z,17.50
2019-03-03T00:50:53.022Z,17.70
2019-03-03T00:53:23.208Z,17.07
2019-03-03T00:56:02.381Z,16.43
2019-03-03T00:58:35.279Z,17.13
2019-03-03T01:01:07.995Z,16.50
2019-03-03T01:03:38.201Z,16.00
2019-03-03T01:06:14.663Z,15.97
2019-03-03T01:08:48.068Z,16.57
2019-03-03T01:11:34.582Z,16.83
2019-03-03T01:14:10.584Z,17.13
2019-03-03T01:16:53.098Z,17.13
2019-03-03T01:19:23.333Z,16.83
2019-03-03T01:21:56.581Z,16.77
2019-03-03T01:24:26.800Z,15.83
2019-03-03T01:26:55.383Z,16.67
2019-03-03T01:29:23.938Z,17.10
2019-03-03T01:31:52.633Z,16.57
2019-03-03T01:34:21.189Z,16.60
2019-03-03T01:36:49.773Z,16.00
2019-03-03T01:39:18.255Z,16.13
2019-03-03T01:41:46.853Z,16.27
2019-03-03T01:44:15.471Z,17.03
2019-03-03T01:46:44.053Z,16.00
2019-03-03T01:49:12.673Z,15.27
2019-03-03T01:51:41.182Z,16.27
2019-03-03T01:54:09.661Z,15.50
2019-03-03T01:56:38.175Z,15.20
2019-03-03T01:59:06.741Z,15.70
2019-03-03T02:01:35.327Z,14.93
2019-03-03T02:04:03.954Z,14.50
2019-03-03T02:06:32.487Z,12.87
2019-03-03T02:09:01.042Z,12.03
2019-03-03T02:11:30.329Z,12.43
2019-03-03T02:13:58.842Z,11.83
2019-03-03T02:16:27.462Z,12.10
2019-03-03T02:18:56.213Z,11.90
2019-03-03T02:21:24.841Z,11.73
2019-03-03T02:23:53.416Z,11.10
2019-03-03T02:26:22.049Z,11.17
2019-03-03T02:28:50.597Z,11.27
2019-03-03T02:31:19.114Z,10.20
2019-03-03T02:33:47.819Z,10.60
2019-03-03T02:36:16.473Z,10.23
2019-03-03T02:38:45.023Z,10.40
2019-03-03T02:41:13.625Z,10.00
2019-03-03T02:43:42.552Z,9.57
2019-03-03T02:46:11.126Z,10.03
2019-03-03T02:48:39.678Z,9.87
2019-03-03T02:51:08.191Z,9.73
2019-03-03T02:53:36.746Z,10.10
2019-03-03T02:56:05.403Z,9.27
2019-03-03T02:58:34.018Z,9.17
2019-03-03T03:01:15.973Z,10.00
2019-03-03T03:03:44.519Z,9.57
2019-03-03T03:06:20.842Z,8.83
2019-03-03T03:09:07.058Z,9.70
2019-03-03T03:11:40.094Z,8.87
2019-03-03T03:14:26.346Z,9.53
2019-03-03T03:16:56.563Z,8.80
2019-03-03T03:19:29.637Z,8.00
2019-03-03T03:21:59.861Z,8.80
2019-03-03T03:24:41.769Z,8.43
2019-03-03T03:27:21.148Z,8.47
2019-03-03T03:30:03.043Z,8.17
2019-03-03T03:32:44.887Z,8.47
2019-03-03T03:35:24.329Z,8.20
2019-03-03T03:37:54.547Z,8.23
2019-03-03T03:40:27.989Z,8.00
2019-03-03T03:43:04.202Z,8.00
2019-03-03T03:45:52.834Z,7.50
2019-03-03T03:48:38.360Z,7.83
2019-03-03T03:51:11.269Z,7.30
2019-03-03T03:53:53.546Z,7.63
2019-03-03T03:56:29.822Z,7.47
2019-03-03T03:59:00.056Z,7.20
2019-03-03T04:01:39.251Z,7.33
2019-03-03T04:04:09.468Z,6.80
2019-03-03T04:06:42.161Z,6.70
2019-03-03T04:09:18.256Z,7.07
2019-03-03T04:11:48.447Z,6.63
2019-03-03T04:14:18.668Z,6.80
2019-03-03T04:16:48.873Z,6.57
2019-03-03T04:19:35.855Z,6.67
2019-03-03T04:22:06.054Z,6.13
2019-03-03T04:24:39.327Z,5.70
2019-03-03T04:27:25.821Z,6.07
2019-03-03T04:29:56.036Z,5.93
2019-03-03T04:32:41.309Z,5.77
2019-03-03T04:35:17.282Z,6.10
2019-03-03T04:37:53.072Z,5.50
2019-03-03T04:40:32.526Z,5.50
2019-03-03T04:43:08.650Z,4.73
2019-03-03T04:45:38.874Z,4.70
2019-03-03T04:48:17.954Z,4.83
2019-03-03T04:51:04.463Z,4.60
2019-03-03T04:53:52.822Z,4.47
2019-03-03T04:56:23.046Z,4.40
2019-03-03T04:58:59.162Z,4.50
2019-03-03T05:01:45.673Z,4.20
2019-03-03T05:04:27.854Z,3.90
2019-03-03T05:06:58.073Z,3.83
2019-03-03T05:09:31.228Z,4.40
2019-03-03T05:12:13.066Z,3.80
2019-03-03T05:14:43.562Z,4.10
2019-03-03T05:17:13.788Z,3.93
2019-03-03T05:19:43.985Z,3.60
2019-03-03T05:22:12.572Z,3.57
2019-03-03T05:24:41.142Z,4.07
2019-03-03T05:27:09.737Z,3.90
2019-03-03T05:29:38.305Z,3.70
2019-03-03T05:32:06.863Z,3.50
2019-03-03T05:34:35.451Z,3.57
2019-03-03T05:37:04.010Z,3.40
2019-03-03T05:39:32.594Z,3.87
2019-03-03T05:42:01.150Z,3.50
2019-03-03T05:44:29.669Z,3.30
2019-03-03T05:46:58.242Z,3.37
2019-03-03T05:49:26.818Z,3.20
2019-03-03T05:51:55.294Z,3.20
2019-03-03T05:54:23.853Z,3.37
2019-03-03T05:56:52.438Z,3.30
2019-03-03T05:59:21.020Z,3.30
2019-03-03T06:01:49.710Z,3.20
2019-03-03T06:04:18.295Z,3.47
2019-03-03T06:06:46.898Z,3.33
2019-03-03T06:09:15.450Z,3.07
2019-03-03T06:11:44.030Z,3.17
2019-03-03T06:14:12.589Z,3.10
2019-03-03T06:16:41.174Z,3.30
2019-03-03T06:19:09.730Z,3.30
2019-03-03T06:21:38.474Z,3.30
2019-03-03T06:24:07.032Z,3.00
2019-03-03T06:26:35.617Z,3.00
2019-03-03T06:29:04.166Z,3.30
2019-03-03T06:31:32.802Z,3.37
2019-03-03T06:34:01.353Z,3.00
2019-03-03T06:36:29.938Z,2.90
2019-03-03T06:38:58.489Z,2.83
2019-03-03T06:41:27.138Z,2.87
2019-03-03T06:43:55.690Z,3.30
2019-03-03T06:46:24.272Z,3.03
2019-03-03T06:48:52.823Z,3.00
2019-03-03T06:51:21.410Z,2.70
2019-03-03T06:53:49.977Z,2.93
2019-03-03T06:56:18.570Z,3.37
2019-03-03T06:58:47.196Z,3.50
2019-03-03T07:01:15.802Z,3.93
2019-03-03T07:03:44.362Z,19.93
2019-03-03T07:06:12.868Z,4.67
2019-03-03T07:08:41.421Z,3.30
2019-03-03T07:11:10.183Z,4.27
2019-03-03T07:13:38.826Z,4.40
2019-03-03T07:16:07.406Z,4.10
2019-03-03T07:18:35.954Z,4.10
2019-03-03T07:21:04.471Z,3.83
2019-03-03T07:23:33.009Z,3.90
2019-03-03T07:26:01.566Z,4.00
2019-03-03T07:28:30.147Z,3.67
2019-03-03T07:30:58.698Z,4.10
2019-03-03T07:33:28.925Z,4.30
2019-03-03T07:35:57.480Z,3.77
2019-03-03T07:38:26.068Z,3.83
2019-03-03T07:40:54.613Z,3.67
2019-03-03T07:43:23.198Z,4.10
2019-03-03T07:45:51.817Z,3.97
2019-03-03T07:48:20.327Z,4.30
2019-03-03T07:50:48.881Z,4.83
2019-03-03T07:53:17.464Z,4.17
2019-03-03T07:55:46.082Z,3.60
2019-03-03T07:58:14.684Z,4.00
2019-03-03T08:00:43.232Z,4.20
2019-03-03T08:03:11.882Z,3.67
2019-03-03T08:05:40.441Z,3.60
2019-03-03T08:08:09.019Z,3.30
2019-03-03T08:10:37.578Z,3.70
2019-03-03T08:13:09.299Z,3.40
2019-03-03T08:15:36.374Z,3.50
2019-03-03T08:18:05.047Z,3.63
2019-03-03T08:20:33.598Z,3.50
2019-03-03T08:23:02.125Z,3.20
2019-03-03T08:25:30.703Z,3.17
2019-03-03T08:27:59.254Z,3.30
2019-03-03T08:30:27.743Z,3.33
2019-03-03T08:32:56.370Z,3.30
2019-03-03T08:35:27.050Z,2.80
2019-03-03T08:37:55.635Z,2.97
2019-03-03T08:40:24.186Z,3.07
2019-03-03T08:43:10.754Z,3.10
2019-03-03T08:45:50.176Z,2.60
2019-03-03T08:48:20.483Z,3.00
2019-03-03T08:50:50.816Z,2.80
2019-03-03T08:53:37.363Z,2.77
2019-03-03T08:56:16.510Z,2.50
2019-03-03T08:58:58.464Z,3.27
2019-03-03T09:01:31.381Z,3.20
2019-03-03T09:04:13.182Z,2.83
2019-03-03T09:06:43.404Z,3.30
2019-03-03T09:09:32.160Z,2.83
2019-03-03T09:12:18.783Z,2.93
2019-03-03T09:14:51.741Z,2.93
2019-03-03T09:17:21.943Z,2.90
2019-03-03T09:19:52.181Z,3.07
2019-03-03T09:22:40.314Z,2.57
2019-03-03T09:25:20.017Z,2.70
2019-03-03T09:27:52.710Z,2.80
2019-03-03T09:30:25.663Z,2.83
2019-03-03T09:33:04.938Z,2.90
2019-03-03T09:35:53.149Z,2.60
2019-03-03T09:38:29.123Z,2.87
2019-03-03T09:41:14.426Z,2.50
2019-03-03T09:43:50.872Z,2.83
2019-03-03T09:49:06.250Z,2.53
2019-03-03T09:51:42.134Z,2.70
2019-03-03T09:54:15.146Z,2.60
2019-03-03T09:56:54.294Z,2.60
2019-03-03T09:59:27.294Z,2.70
2019-03-03T10:02:13.975Z,3.00
2019-03-03T10:04:44.170Z,2.87
2019-03-03T10:07:17.595Z,2.70
2019-03-03T10:09:53.998Z,2.70
2019-03-03T10:12:24.230Z,2.50
2019-03-03T10:14:54.495Z,2.70
2019-03-03T10:17:30.686Z,2.40
2019-03-03T10:20:00.947Z,2.57
2019-03-03T10:22:34.090Z,2.80
2019-03-03T10:25:20.742Z,2.43
2019-03-03T10:28:07.439Z,2.80
2019-03-03T10:30:40.265Z,2.43
2019-03-03T10:33:10.491Z,2.50
2019-03-03T10:35:46.203Z,2.50
2019-03-03T10:38:16.498Z,2.83
2019-03-03T10:40:49.378Z,2.43
2019-03-03T10:43:19.603Z,2.43
2019-03-03T10:45:49.878Z,2.70
2019-03-03T10:48:22.698Z,2.70
2019-03-03T10:50:56.338Z,2.50
2019-03-03T10:53:27.113Z,2.60
2019-03-03T10:56:00.628Z,2.60
2019-03-03T10:58:34.019Z,2.50
2019-03-03T11:01:10.057Z,2.60
2019-03-03T11:03:45.750Z,2.57
2019-03-03T11:06:24.658Z,2.43
2019-03-03T11:08:57.598Z,2.47
2019-03-03T11:11:33.579Z,2.47
2019-03-03T11:14:09.470Z,2.80
2019-03-03T11:16:57.886Z,2.50
2019-03-03T11:19:33.818Z,2.43
2019-03-03T11:22:19.246Z,2.43
2019-03-03T11:25:07.761Z,2.43
2019-03-03T11:27:53.997Z,2.20
2019-03-03T11:30:33.042Z,2.47
2019-03-03T11:33:18.420Z,2.60
2019-03-03T11:35:54.594Z,2.67
2019-03-03T11:38:33.696Z,2.87
2019-03-03T11:41:03.911Z,2.40
2019-03-03T11:43:52.480Z,2.50
2019-03-03T11:46:40.297Z,2.40
2019-03-03T11:49:16.043Z,2.47
2019-03-03T11:51:49.248Z,2.57
2019-03-03T11:54:31.563Z,2.60
2019-03-03T11:57:04.571Z,2.20
2019-03-03T11:59:52.829Z,2.93
2019-03-03T12:02:23.069Z,2.67
2019-03-03T12:05:08.463Z,2.70
2019-03-03T12:07:54.954Z,2.93
2019-03-03T12:10:34.217Z,2.67
2019-03-03T12:13:04.447Z,2.63
2019-03-03T12:15:37.600Z,2.90
2019-03-03T12:18:19.971Z,2.80
2019-03-03T12:20:59.162Z,3.23
2019-03-03T12:23:32.003Z,2.53
2019-03-03T12:26:02.269Z,2.43
2019-03-03T12:28:35.098Z,2.40
2019-03-03T12:31:11.079Z,2.50
2019-03-03T12:33:41.374Z,2.40
2019-03-03T12:36:23.492Z,2.60
2019-03-03T12:38:56.392Z,2.50
2019-03-03T12:41:44.741Z,2.57
2019-03-03T12:44:30.155Z,2.50
2019-03-03T12:47:06.165Z,2.37
2019-03-03T12:49:45.199Z,2.63
2019-03-03T12:52:15.394Z,2.43
2019-03-03T12:54:48.336Z,2.40
2019-03-03T12:57:33.247Z,2.90
2019-03-03T13:00:11.462Z,2.60
2019-03-03T13:02:56.403Z,2.10
2019-03-03T13:05:26.644Z,2.50
2019-03-03T13:08:06.041Z,2.87
2019-03-03T13:10:38.711Z,2.47
2019-03-03T13:13:14.950Z,2.30
2019-03-03T13:16:00.296Z,2.73
2019-03-03T13:18:30.417Z,2.23
2019-03-03T13:21:09.359Z,2.60
2019-03-03T13:23:56.163Z,1.93
2019-03-03T13:26:38.683Z,2.83
2019-03-03T13:29:25.287Z,2.53
2019-03-03T13:31:55.541Z,2.40
2019-03-03T13:34:38.011Z,2.50
2019-03-03T13:37:14.633Z,2.40
2019-03-03T13:39:50.439Z,2.70
2019-03-03T13:42:20.801Z,2.40
2019-03-03T13:44:49.350Z,2.63
2019-03-03T13:47:18.014Z,2.50
2019-03-03T13:49:46.619Z,2.60
2019-03-03T13:52:15.444Z,2.10
2019-03-03T13:54:44.093Z,2.53
2019-03-03T13:57:12.660Z,2.40
2019-03-03T13:59:41.313Z,2.50
2019-03-03T14:02:09.953Z,2.20
2019-03-03T14:04:38.674Z,2.80
2019-03-03T14:07:07.307Z,2.77
2019-03-03T14:09:35.959Z,2.97
2019-03-03T14:12:04.643Z,2.60
2019-03-03T14:14:33.367Z,2.60
2019-03-03T14:17:01.981Z,2.70
2019-03-03T14:19:30.567Z,2.80
2019-03-03T14:21:59.116Z,2.60
2019-03-03T14:24:27.699Z,2.80
2019-03-03T14:26:56.249Z,2.60
2019-03-03T14:29:24.759Z,2.70
2019-03-03T14:31:53.374Z,2.90
2019-03-03T14:34:21.942Z,3.10
2019-03-03T14:36:50.767Z,2.97
2019-03-03T14:39:19.519Z,2.60
2019-03-03T14:41:48.089Z,2.60
2019-03-03T14:44:16.634Z,2.60
2019-03-03T14:46:45.186Z,3.00
2019-03-03T14:49:13.770Z,2.70
2019-03-03T14:51:42.319Z,3.00
2019-03-03T14:54:10.978Z,2.93
2019-03-03T14:56:39.603Z,5.27
2019-03-03T14:59:08.957Z,3.57
2019-03-03T15:01:37.539Z,3.33
2019-03-03T15:04:06.195Z,3.83
2019-03-03T15:06:34.887Z,3.77
2019-03-03T15:09:05.503Z,3.10
2019-03-03T15:11:34.059Z,2.77
2019-03-03T15:14:02.713Z,2.70
2019-03-03T15:16:31.261Z,2.70
2019-03-03T15:18:59.861Z,4.00
2019-03-03T15:21:28.519Z,8.77
2019-03-03T15:23:57.100Z,5.20
2019-03-03T15:26:25.655Z,2.63
2019-03-03T15:28:54.409Z,2.40
2019-03-03T15:31:23.103Z,2.30
2019-03-03T15:33:51.697Z,2.30
2019-03-03T15:36:20.318Z,2.50
2019-03-03T15:38:48.915Z,2.20
2019-03-03T15:41:17.612Z,2.43
2019-03-03T15:43:46.203Z,2.20
2019-03-03T15:46:14.838Z,2.80
2019-03-03T15:48:43.405Z,2.70
2019-03-03T15:51:12.332Z,2.30
2019-03-03T15:53:40.931Z,2.57
2019-03-03T15:56:09.563Z,2.70
2019-03-03T15:58:38.146Z,2.30
2019-03-03T16:01:09.839Z,2.70
2019-03-03T16:03:38.419Z,2.73
2019-03-03T16:06:06.974Z,2.50
2019-03-03T16:08:35.553Z,2.73
2019-03-03T16:11:04.388Z,2.50
2019-03-03T16:13:32.958Z,2.47
2019-03-03T16:16:01.512Z,2.40
2019-03-03T16:18:30.096Z,2.37
2019-03-03T16:20:59.737Z,2.43
2019-03-03T16:23:28.295Z,2.70
2019-03-03T16:25:56.874Z,2.67
2019-03-03T16:28:25.448Z,2.83
2019-03-03T16:30:54.041Z,2.60
2019-03-03T16:33:22.588Z,2.50
2019-03-03T16:35:51.809Z,2.27
2019-03-03T16:38:20.363Z,2.20
2019-03-03T16:40:48.947Z,2.50
2019-03-03T16:43:17.502Z,2.87
2019-03-03T16:45:46.082Z,2.40
2019-03-03T16:48:14.775Z,2.10
2019-03-03T16:50:43.363Z,2.60
2019-03-03T16:53:11.911Z,2.30
2019-03-03T16:55:40.566Z,2.70
2019-03-03T16:58:09.127Z,2.57
2019-03-03T17:00:37.773Z,2.50
2019-03-03T17:03:06.367Z,2.20
2019-03-03T17:05:35.023Z,2.50
2019-03-03T17:08:03.731Z,2.30
2019-03-03T17:10:32.241Z,2.40
2019-03-03T17:13:00.799Z,2.90
2019-03-03T17:15:30.131Z,3.10
2019-03-03T17:17:58.795Z,2.20
2019-03-03T17:20:27.382Z,2.10
2019-03-03T17:22:55.948Z,2.43
2019-03-03T17:25:25.965Z,2.67
2019-03-03T17:27:56.999Z,2.30
2019-03-03T17:30:26.648Z,2.73
2019-03-03T17:32:55.272Z,2.90
2019-03-03T17:35:23.930Z,3.40
2019-03-03T17:37:52.491Z,2.80
2019-03-03T17:40:23.527Z,26.23
2019-03-03T17:42:52.228Z,3.07
2019-03-03T17:45:24.407Z,5.17
2019-03-03T17:47:53.163Z,3.13
2019-03-03T17:50:29.560Z,3.00
2019-03-03T17:52:58.379Z,2.40
2019-03-03T17:55:27.178Z,2.67
2019-03-03T17:57:55.746Z,2.57
2019-03-03T18:00:38.594Z,2.80
2019-03-03T18:03:07.289Z,2.60
2019-03-03T18:05:35.877Z,3.00
2019-03-03T18:08:04.490Z,2.40
2019-03-03T18:10:33.693Z,2.70
2019-03-03T18:13:02.317Z,2.40
2019-03-03T18:15:30.996Z,2.67
2019-03-03T18:17:59.554Z,2.37
2019-03-03T18:20:28.212Z,3.10
2019-03-03T18:22:56.859Z,2.43
2019-03-03T18:26:00.365Z,2.20
2019-03-03T18:28:28.922Z,2.13
2019-03-03T18:30:57.513Z,2.60
2019-03-03T18:33:26.082Z,2.27
2019-03-03T18:35:54.661Z,2.47
2019-03-03T18:38:23.206Z,2.30
2019-03-03T18:40:51.797Z,2.30
2019-03-03T18:43:20.286Z,2.10
2019-03-03T18:45:48.861Z,2.23
2019-03-03T18:48:17.346Z,2.20
2019-03-03T18:50:46.047Z,2.33
2019-03-03T18:53:33.937Z,2.00
2019-03-03T18:56:02.535Z,2.23
2019-03-03T18:58:31.098Z,2.30
2019-03-03T19:00:59.691Z,2.30
2019-03-03T19:03:28.251Z,2.20
2019-03-03T19:05:56.841Z,4.23
2019-03-03T19:08:25.423Z,9.07
2019-03-03T19:10:54.175Z,3.97
2019-03-03T19:13:22.755Z,7.23
2019-03-03T19:15:51.353Z,15.25
2019-03-03T19:18:20.059Z,2.70
2019-03-03T19:20:48.759Z,2.47
2019-03-03T19:23:17.366Z,2.77
2019-03-03T19:25:45.953Z,2.07
2019-03-03T19:28:14.525Z,2.20
2019-03-03T19:30:43.116Z,2.10
2019-03-03T19:33:20.553Z,2.30
2019-03-03T19:35:49.281Z,2.27
2019-03-03T19:38:17.845Z,2.20
2019-03-03T19:40:46.473Z,1.90
2019-03-03T19:43:15.097Z,2.27
2019-03-03T19:45:49.104Z,2.50
2019-03-03T19:48:17.703Z,2.30
2019-03-03T19:50:48.229Z,2.53
2019-03-03T19:53:16.777Z,2.23
2019-03-03T19:55:46.641Z,2.57
2019-03-03T19:58:15.333Z,1.70
2019-03-03T20:00:44.855Z,2.20
2019-03-03T20:03:13.552Z,2.07
2019-03-03T20:05:42.151Z,2.03
2019-03-03T20:08:12.469Z,1.77
2019-03-03T20:10:41.257Z,2.57
2019-03-03T20:13:10.199Z,2.20
2019-03-03T20:15:39.122Z,2.40
2019-03-03T20:18:09.846Z,2.30
2019-03-03T20:20:38.960Z,2.27
2019-03-03T20:23:07.696Z,1.80
2019-03-03T20:25:36.366Z,2.43
2019-03-03T20:28:05.383Z,2.00
2019-03-03T20:30:34.189Z,2.03
2019-03-03T20:33:02.904Z,2.30
2019-03-03T20:35:31.595Z,2.23
2019-03-03T20:38:00.303Z,2.23
2019-03-03T20:40:29.275Z,2.80
2019-03-03T20:42:57.891Z,2.43
2019-03-03T20:45:30.564Z,1.93
2019-03-03T20:47:59.321Z,1.97
2019-03-03T20:50:28.066Z,2.00
2019-03-03T20:52:56.669Z,1.73
2019-03-03T20:55:33.141Z,2.10
2019-03-03T20:58:01.891Z,1.67
2019-03-03T21:00:32.487Z,1.77
2019-03-03T21:03:01.471Z,2.00
2019-03-03T21:05:30.290Z,1.60
2019-03-03T21:07:58.955Z,2.00
2019-03-03T21:10:30.089Z,1.40
2019-03-03T21:12:58.798Z,1.70
2019-03-03T21:15:27.447Z,1.70
2019-03-03T21:17:56.198Z,2.07
2019-03-03T21:20:24.959Z,1.77
2019-03-03T21:22:53.608Z,1.80
2019-03-03T21:25:22.252Z,2.00
2019-03-03T21:27:50.841Z,1.77
2019-03-03T21:30:26.475Z,2.00
2019-03-03T21:32:55.613Z,1.90
2019-03-03T21:35:24.367Z,1.83
2019-03-03T21:37:53.302Z,1.90
2019-03-03T21:40:26.926Z,1.90
2019-03-03T21:42:55.767Z,1.90
2019-03-03T21:45:28.845Z,1.67
2019-03-03T21:47:57.589Z,1.80
2019-03-03T21:50:28.560Z,2.03
2019-03-03T21:52:57.069Z,2.00
2019-03-03T21:55:25.675Z,2.40
2019-03-03T21:57:54.278Z,2.00
2019-03-03T22:00:28.017Z,2.23
2019-03-03T22:02:57.037Z,1.73
2019-03-03T22:05:25.775Z,1.97
2019-03-03T22:07:54.353Z,1.77
2019-03-03T22:10:32.965Z,2.00
2019-03-03T22:13:03.605Z,2.03
2019-03-03T22:15:32.343Z,2.00
2019-03-03T22:18:01.053Z,1.90
2019-03-03T22:20:29.673Z,1.87
2019-03-03T22:22:58.329Z,2.10
2019-03-03T22:25:27.077Z,2.00
2019-03-03T22:27:55.643Z,2.30
2019-03-03T22:30:24.395Z,2.30
2019-03-03T22:32:52.962Z,2.00
2019-03-03T22:35:21.661Z,2.20
2019-03-03T22:37:50.939Z,1.97
2019-03-03T22:40:21.791Z,2.10
2019-03-03T22:42:50.600Z,2.30
2019-03-03T22:45:19.481Z,2.00
2019-03-03T22:47:48.211Z,2.03
2019-03-03T22:50:19.158Z,2.20
2019-03-03T22:52:47.767Z,1.90
2019-03-03T22:55:18.472Z,2.10
2019-03-03T22:57:47.338Z,2.10
2019-03-03T23:03:39.583Z,2.00
2019-03-03T23:06:17.935Z,2.10
2019-03-03T23:08:55.273Z,2.00
2019-03-03T23:11:41.798Z,2.30
2019-03-03T23:14:13.437Z,2.00
2019-03-03T23:16:57.517Z,1.90
2019-03-03T23:19:40.870Z,1.90
2019-03-03T23:22:18.439Z,2.00
2019-03-03T23:24:56.161Z,1.70
2019-03-03T23:27:24.743Z,1.90
2019-03-03T23:29:53.373Z,1.93
2019-03-03T23:32:21.985Z,2.40
2019-03-03T23:34:50.546Z,1.87
2019-03-03T23:37:19.141Z,2.30
2019-03-03T23:39:47.689Z,2.07
2019-03-03T23:42:16.205Z,2.00
2019-03-03T23:44:44.754Z,1.97
2019-03-03T23:47:13.347Z,2.07
2019-03-03T23:49:41.897Z,1.77
2019-03-03T23:52:12.413Z,2.00
2019-03-03T23:54:40.611Z,1.93
2019-03-03T23:57:09.171Z,1.53
2019-03-03T23:59:37.758Z,2.00
